sensor_id;sensor_type;location;lat;lon;timestamp;pressure;altitude;pressure_sealevel;temperature;humidity
39105;BME280;46464;51.154;13.812;2023-03-16T00:00:50;52759.63;;;-146.96;82.44
39105;BME280;46464;51.154;13.812;2023-03-16T00:03:16;52759.63;;;-146.96;82.44
39105;BME280;46464;51.154;13.812;2023-03-16T00:05:52;52771.81;;;-146.96;82.36
39105;BME280;46464;51.154;13.812;2023-03-16T00:08:19;52723.00;;;-146.96;82.24
39105;BME280;46464;51.154;13.812;2023-03-16T00:10:46;52765.72;;;-146.96;82.31
39105;BME280;46464;51.154;13.812;2023-03-16T00:13:13;52767.75;;;-146.96;82.25
39105;BME280;46464;51.154;13.812;2023-03-16T00:15:41;52757.59;;;-146.96;82.21
39105;BME280;46464;51.154;13.812;2023-03-16T00:18:14;52741.31;;;-146.96;82.07
39105;BME280;46464;51.154;13.812;2023-03-16T00:20:41;52777.94;;;-146.96;82.38
39105;BME280;46464;51.154;13.812;2023-03-16T00:23:07;52743.34;;;-146.96;82.41
39105;BME280;46464;51.154;13.812;2023-03-16T00:25:34;52733.16;;;-146.96;82.37
39105;BME280;46464;51.154;13.812;2023-03-16T00:28:00;52763.69;;;-146.96;82.18
39105;BME280;46464;51.154;13.812;2023-03-16T00:30:29;52775.91;;;-146.96;82.44
39105;BME280;46464;51.154;13.812;2023-03-16T00:32:58;52759.63;;;-146.96;82.03
39105;BME280;46464;51.154;13.812;2023-03-16T00:35:24;52761.66;;;-146.96;82.03
39105;BME280;46464;51.154;13.812;2023-03-16T00:37:51;52769.78;;;-146.96;82.00
39105;BME280;46464;51.154;13.812;2023-03-16T00:40:18;52739.25;;;-146.96;82.03
39105;BME280;46464;51.154;13.812;2023-03-16T00:42:44;52790.13;;;-146.96;81.93
39105;BME280;46464;51.154;13.812;2023-03-16T00:45:11;52788.09;;;-146.96;81.86
39105;BME280;46464;51.154;13.812;2023-03-16T00:47:37;52765.72;;;-146.96;81.82
39105;BME280;46464;51.154;13.812;2023-03-16T00:50:04;52759.63;;;-146.96;81.96
39105;BME280;46464;51.154;13.812;2023-03-16T00:52:31;52767.75;;;-146.96;81.79
39105;BME280;46464;51.154;13.812;2023-03-16T00:54:57;52771.81;;;-146.96;81.94
39105;BME280;46464;51.154;13.812;2023-03-16T00:57:25;52792.19;;;-146.96;81.87
39105;BME280;46464;51.154;13.812;2023-03-16T00:59:53;52788.09;;;-146.96;81.91
39105;BME280;46464;51.154;13.812;2023-03-16T01:02:20;52759.63;;;-146.96;81.90
39105;BME280;46464;51.154;13.812;2023-03-16T01:04:50;52796.25;;;-146.96;82.09
39105;BME280;46464;51.154;13.812;2023-03-16T01:07:17;52763.69;;;-146.96;82.11
39105;BME280;46464;51.154;13.812;2023-03-16T01:09:44;52782.00;;;-146.96;82.36
39105;BME280;46464;51.154;13.812;2023-03-16T01:12:13;52790.13;;;-146.96;82.55
39105;BME280;46464;51.154;13.812;2023-03-16T01:14:41;52757.59;;;-146.96;82.69
39105;BME280;46464;51.154;13.812;2023-03-16T01:17:08;52782.00;;;-146.96;82.71
39105;BME280;46464;51.154;13.812;2023-03-16T01:19:36;52790.13;;;-146.96;82.77
39105;BME280;46464;51.154;13.812;2023-03-16T01:22:04;52790.13;;;-146.96;83.08
39105;BME280;46464;51.154;13.812;2023-03-16T01:24:30;52755.53;;;-146.96;83.37
39105;BME280;46464;51.154;13.812;2023-03-16T01:26:57;52745.38;;;-146.96;83.34
39105;BME280;46464;51.154;13.812;2023-03-16T01:29:24;52798.28;;;-146.96;83.26
39105;BME280;46464;51.154;13.812;2023-03-16T01:31:50;52763.69;;;-146.96;83.00
39105;BME280;46464;51.154;13.812;2023-03-16T01:34:17;52773.84;;;-146.96;82.93
39105;BME280;46464;51.154;13.812;2023-03-16T01:36:46;52806.41;;;-146.96;82.96
39105;BME280;46464;51.154;13.812;2023-03-16T01:39:13;52782.00;;;-146.96;82.97
39105;BME280;46464;51.154;13.812;2023-03-16T01:41:41;52818.63;;;-146.96;83.00
39105;BME280;46464;51.154;13.812;2023-03-16T01:44:11;52806.41;;;-146.96;82.96
39105;BME280;46464;51.154;13.812;2023-03-16T01:46:39;52792.19;;;-146.96;82.79
39105;BME280;46464;51.154;13.812;2023-03-16T01:49:17;52779.97;;;-146.96;82.70
39105;BME280;46464;51.154;13.812;2023-03-16T01:54:24;52794.22;;;-146.96;82.78
39105;BME280;46464;51.154;13.812;2023-03-16T01:57:12;52784.03;;;-146.96;82.71
39105;BME280;46464;51.154;13.812;2023-03-16T01:59:45;52775.91;;;-146.96;82.74
39105;BME280;46464;51.154;13.812;2023-03-16T02:02:17;52745.38;;;-146.96;82.44
39105;BME280;46464;51.154;13.812;2023-03-16T02:05:01;52773.84;;;-146.96;82.27
39105;BME280;46464;51.154;13.812;2023-03-16T02:07:33;52749.44;;;-146.96;82.49
39105;BME280;46464;51.154;13.812;2023-03-16T02:10:03;52777.94;;;-146.96;82.66
39105;BME280;46464;51.154;13.812;2023-03-16T02:12:30;52802.34;;;-146.96;82.66
39105;BME280;46464;51.154;13.812;2023-03-16T02:14:57;52773.84;;;-146.96;82.72
39105;BME280;46464;51.154;13.812;2023-03-16T02:17:28;52775.91;;;-146.96;82.74
39105;BME280;46464;51.154;13.812;2023-03-16T02:22:48;52753.50;;;-146.96;83.13
39105;BME280;46464;51.154;13.812;2023-03-16T02:25:17;52784.03;;;-146.96;83.21
39105;BME280;46464;51.154;13.812;2023-03-16T02:30:33;52775.91;;;-146.96;83.42
39105;BME280;46464;51.154;13.812;2023-03-16T02:33:00;52747.41;;;-146.96;83.45
39105;BME280;46464;51.154;13.812;2023-03-16T02:35:27;52796.25;;;-146.96;83.48
39105;BME280;46464;51.154;13.812;2023-03-16T02:37:54;52806.41;;;-146.96;83.57
39105;BME280;46464;51.154;13.812;2023-03-16T02:40:25;52790.13;;;-146.96;83.67
39105;BME280;46464;51.154;13.812;2023-03-16T02:43:02;52771.81;;;-146.96;83.60
39105;BME280;46464;51.154;13.812;2023-03-16T02:45:38;52804.38;;;-146.96;83.73
39105;BME280;46464;51.154;13.812;2023-03-16T02:48:20;52788.09;;;-146.96;83.69
39105;BME280;46464;51.154;13.812;2023-03-16T02:50:51;52804.38;;;-146.96;83.64
39105;BME280;46464;51.154;13.812;2023-03-16T02:53:18;52769.78;;;-146.96;83.65
39105;BME280;46464;51.154;13.812;2023-03-16T02:55:44;52779.97;;;-146.96;83.65
39105;BME280;46464;51.154;13.812;2023-03-16T02:58:12;52775.91;;;-146.96;83.67
39105;BME280;46464;51.154;13.812;2023-03-16T03:00:39;52796.25;;;-146.96;83.73
39105;BME280;46464;51.154;13.812;2023-03-16T03:03:07;52786.06;;;-146.96;83.69
39105;BME280;46464;51.154;13.812;2023-03-16T03:05:35;52814.56;;;-146.96;83.63
39105;BME280;46464;51.154;13.812;2023-03-16T03:08:03;52788.09;;;-146.96;83.97
39105;BME280;46464;51.154;13.812;2023-03-16T03:10:30;52745.38;;;-146.96;84.14
39105;BME280;46464;51.154;13.812;2023-03-16T03:12:57;52763.69;;;-146.96;84.20
39105;BME280;46464;51.154;13.812;2023-03-16T03:15:24;52790.13;;;-146.96;83.95
39105;BME280;46464;51.154;13.812;2023-03-16T03:17:50;52753.50;;;-146.96;84.39
39105;BME280;46464;51.154;13.812;2023-03-16T03:20:17;52733.16;;;-146.96;84.52
39105;BME280;46464;51.154;13.812;2023-03-16T03:22:47;52810.50;;;-146.96;84.75
39105;BME280;46464;51.154;13.812;2023-03-16T03:25:15;52769.78;;;-146.96;84.69
39105;BME280;46464;51.154;13.812;2023-03-16T03:27:43;52771.81;;;-146.96;84.62
39105;BME280;46464;51.154;13.812;2023-03-16T03:30:13;52788.09;;;-146.96;85.13
39105;BME280;46464;51.154;13.812;2023-03-16T03:32:41;52779.97;;;-146.96;85.36
39105;BME280;46464;51.154;13.812;2023-03-16T03:35:07;52759.63;;;-146.96;85.20
39105;BME280;46464;51.154;13.812;2023-03-16T03:37:38;52802.34;;;-146.96;85.01
39105;BME280;46464;51.154;13.812;2023-03-16T03:40:06;52784.03;;;-146.96;84.77
39105;BME280;46464;51.154;13.812;2023-03-16T03:42:33;52767.75;;;-146.96;84.62
39105;BME280;46464;51.154;13.812;2023-03-16T03:45:00;52775.91;;;-146.96;84.73
39105;BME280;46464;51.154;13.812;2023-03-16T03:47:26;52771.81;;;-146.96;84.80
39105;BME280;46464;51.154;13.812;2023-03-16T03:49:53;52777.94;;;-146.96;84.99
39105;BME280;46464;51.154;13.812;2023-03-16T03:52:19;52779.97;;;-146.96;85.02
39105;BME280;46464;51.154;13.812;2023-03-16T03:54:46;52777.94;;;-146.96;85.13
39105;BME280;46464;51.154;13.812;2023-03-16T03:57:12;52741.31;;;-146.96;85.24
39105;BME280;46464;51.154;13.812;2023-03-16T03:59:39;52777.94;;;-146.96;85.40
39105;BME280;46464;51.154;13.812;2023-03-16T04:02:10;52716.88;;;-146.96;85.54
39105;BME280;46464;51.154;13.812;2023-03-16T04:04:37;52755.53;;;-146.96;85.76
39105;BME280;46464;51.154;13.812;2023-03-16T04:07:04;52782.00;;;-146.96;85.91
39105;BME280;46464;51.154;13.812;2023-03-16T04:09:31;52784.03;;;-146.96;86.81
39105;BME280;46464;51.154;13.812;2023-03-16T04:12:02;52765.72;;;-146.96;86.54
39105;BME280;46464;51.154;13.812;2023-03-16T04:14:29;52804.38;;;-146.96;86.39
39105;BME280;46464;51.154;13.812;2023-03-16T04:16:56;52786.06;;;-146.96;86.33
39105;BME280;46464;51.154;13.812;2023-03-16T04:19:23;52798.28;;;-146.96;86.62
39105;BME280;46464;51.154;13.812;2023-03-16T04:21:50;52710.78;;;-146.96;86.59
39105;BME280;46464;51.154;13.812;2023-03-16T04:24:17;52798.28;;;-146.96;86.52
39105;BME280;46464;51.154;13.812;2023-03-16T04:26:44;52739.25;;;-146.96;86.75
39105;BME280;46464;51.154;13.812;2023-03-16T04:29:14;52769.78;;;-146.96;86.74
39105;BME280;46464;51.154;13.812;2023-03-16T04:31:44;52804.38;;;-146.96;86.90
39105;BME280;46464;51.154;13.812;2023-03-16T04:34:12;52808.47;;;-146.96;86.92
39105;BME280;46464;51.154;13.812;2023-03-16T04:36:39;52763.69;;;-146.96;87.22
39105;BME280;46464;51.154;13.812;2023-03-16T04:39:07;52794.22;;;-146.96;87.84
39105;BME280;46464;51.154;13.812;2023-03-16T04:41:34;52816.59;;;-146.96;87.58
39105;BME280;46464;51.154;13.812;2023-03-16T04:44:00;52773.84;;;-146.96;87.41
39105;BME280;46464;51.154;13.812;2023-03-16T04:46:27;52775.91;;;-146.96;87.36
39105;BME280;46464;51.154;13.812;2023-03-16T04:48:54;52769.78;;;-146.96;87.19
39105;BME280;46464;51.154;13.812;2023-03-16T04:51:25;52761.66;;;-146.96;87.15
39105;BME280;46464;51.154;13.812;2023-03-16T04:53:51;52786.06;;;-146.96;87.25
39105;BME280;46464;51.154;13.812;2023-03-16T04:56:18;52735.19;;;-146.96;87.24
39105;BME280;46464;51.154;13.812;2023-03-16T04:58:47;52759.63;;;-146.96;87.27
39105;BME280;46464;51.154;13.812;2023-03-16T05:01:14;52761.66;;;-146.96;87.12
39105;BME280;46464;51.154;13.812;2023-03-16T05:03:41;52771.81;;;-146.96;87.15
39105;BME280;46464;51.154;13.812;2023-03-16T05:06:09;52771.81;;;-146.96;87.12
39105;BME280;46464;51.154;13.812;2023-03-16T05:08:37;52739.25;;;-146.96;87.27
39105;BME280;46464;51.154;13.812;2023-03-16T05:11:03;52777.94;;;-146.96;87.19
39105;BME280;46464;51.154;13.812;2023-03-16T05:13:30;52824.72;;;-146.96;87.23
39105;BME280;46464;51.154;13.812;2023-03-16T05:15:57;52759.63;;;-146.96;87.23
39105;BME280;46464;51.154;13.812;2023-03-16T05:18:24;52790.13;;;-146.96;87.29
39105;BME280;46464;51.154;13.812;2023-03-16T05:20:51;52753.50;;;-146.96;87.27
39105;BME280;46464;51.154;13.812;2023-03-16T05:23:19;52739.25;;;-146.96;87.25
39105;BME280;46464;51.154;13.812;2023-03-16T05:25:47;52802.34;;;-146.96;87.25
39105;BME280;46464;51.154;13.812;2023-03-16T05:28:13;52775.91;;;-146.96;87.31
39105;BME280;46464;51.154;13.812;2023-03-16T05:30:41;52824.72;;;-146.96;87.29
39105;BME280;46464;51.154;13.812;2023-03-16T05:33:08;52771.81;;;-146.96;87.29
39105;BME280;46464;51.154;13.812;2023-03-16T05:35:35;52775.91;;;-146.96;86.25
39105;BME280;46464;51.154;13.812;2023-03-16T05:38:01;52802.34;;;-146.96;86.14
39105;BME280;46464;51.154;13.812;2023-03-16T05:40:29;52804.38;;;-146.96;85.51
39105;BME280;46464;51.154;13.812;2023-03-16T05:42:57;52804.38;;;-146.96;85.82
39105;BME280;46464;51.154;13.812;2023-03-16T05:45:27;52753.50;;;-146.96;85.78
39105;BME280;46464;51.154;13.812;2023-03-16T05:47:54;52786.06;;;-146.96;85.73
39105;BME280;46464;51.154;13.812;2023-03-16T05:50:21;52802.34;;;-146.96;85.18
39105;BME280;46464;51.154;13.812;2023-03-16T05:52:47;52788.09;;;-146.96;85.22
39105;BME280;46464;51.154;13.812;2023-03-16T05:55:16;52769.78;;;-146.96;85.06
39105;BME280;46464;51.154;13.812;2023-03-16T05:57:43;52794.22;;;-146.96;85.30
39105;BME280;46464;51.154;13.812;2023-03-16T06:00:12;52788.09;;;-146.96;85.21
39105;BME280;46464;51.154;13.812;2023-03-16T06:02:46;52792.19;;;-146.96;85.18
39105;BME280;46464;51.154;13.812;2023-03-16T06:05:14;52810.50;;;-146.96;85.29
39105;BME280;46464;51.154;13.812;2023-03-16T06:07:41;52759.63;;;-146.96;85.60
39105;BME280;46464;51.154;13.812;2023-03-16T06:10:09;52784.03;;;-146.96;85.67
39105;BME280;46464;51.154;13.812;2023-03-16T06:12:36;52771.81;;;-146.96;85.75
39105;BME280;46464;51.154;13.812;2023-03-16T06:15:04;52794.22;;;-146.96;85.82
39105;BME280;46464;51.154;13.812;2023-03-16T06:17:35;52800.31;;;-146.96;85.83
39105;BME280;46464;51.154;13.812;2023-03-16T06:20:02;52792.19;;;-146.96;86.08
39105;BME280;46464;51.154;13.812;2023-03-16T06:22:31;52808.47;;;-146.96;86.30
39105;BME280;46464;51.154;13.812;2023-03-16T06:24:57;52733.16;;;-146.96;86.41
39105;BME280;46464;51.154;13.812;2023-03-16T06:27:23;52810.50;;;-146.96;86.90
39105;BME280;46464;51.154;13.812;2023-03-16T06:29:51;52765.72;;;-146.96;87.19
39105;BME280;46464;51.154;13.812;2023-03-16T06:32:18;52765.72;;;-146.96;87.14
39105;BME280;46464;51.154;13.812;2023-03-16T06:34:45;52759.63;;;-146.96;87.26
39105;BME280;46464;51.154;13.812;2023-03-16T06:37:11;52771.81;;;-146.96;87.85
39105;BME280;46464;51.154;13.812;2023-03-16T06:39:38;52765.72;;;-146.96;88.29
39105;BME280;46464;51.154;13.812;2023-03-16T06:42:05;52773.84;;;-146.96;88.48
39105;BME280;46464;51.154;13.812;2023-03-16T06:44:31;52775.91;;;-146.96;88.74
39105;BME280;46464;51.154;13.812;2023-03-16T06:46:58;52784.03;;;-146.96;89.01
39105;BME280;46464;51.154;13.812;2023-03-16T06:49:24;52739.25;;;-146.96;89.28
39105;BME280;46464;51.154;13.812;2023-03-16T06:51:51;52731.13;;;-146.96;89.36
39105;BME280;46464;51.154;13.812;2023-03-16T06:54:18;52747.41;;;-146.96;89.44
39105;BME280;46464;51.154;13.812;2023-03-16T06:56:44;52769.78;;;-146.96;89.90
39105;BME280;46464;51.154;13.812;2023-03-16T06:59:11;52737.22;;;-146.96;90.41
39105;BME280;46464;51.154;13.812;2023-03-16T07:01:38;52723.00;;;-146.96;90.70
39105;BME280;46464;51.154;13.812;2023-03-16T07:04:04;52725.03;;;-146.96;90.52
39105;BME280;46464;51.154;13.812;2023-03-16T07:06:31;52712.81;;;-146.96;90.63
39105;BME280;46464;51.154;13.812;2023-03-16T07:08:57;52704.66;;;-146.96;90.62
39105;BME280;46464;51.154;13.812;2023-03-16T07:11:26;52725.03;;;-146.96;90.34
39105;BME280;46464;51.154;13.812;2023-03-16T07:13:53;52716.88;;;-146.96;89.39
39105;BME280;46464;51.154;13.812;2023-03-16T07:16:19;52727.06;;;-146.96;89.05
39105;BME280;46464;51.154;13.812;2023-03-16T07:18:46;52710.78;;;-146.96;88.33
39105;BME280;46464;51.154;13.812;2023-03-16T07:21:13;52733.16;;;-146.96;87.04
39105;BME280;46464;51.154;13.812;2023-03-16T07:23:39;52684.31;;;-146.96;87.11
39105;BME280;46464;51.154;13.812;2023-03-16T07:26:06;52716.88;;;-146.96;86.55
39105;BME280;46464;51.154;13.812;2023-03-16T07:28:33;52706.72;;;-146.96;86.05
39105;BME280;46464;51.154;13.812;2023-03-16T07:31:00;52747.41;;;-146.96;85.15
39105;BME280;46464;51.154;13.812;2023-03-16T07:33:31;52704.66;;;-146.96;84.34
39105;BME280;46464;51.154;13.812;2023-03-16T07:35:58;52708.75;;;-146.96;82.37
39105;BME280;46464;51.154;13.812;2023-03-16T07:38:24;52692.47;;;-146.96;81.64
39105;BME280;46464;51.154;13.812;2023-03-16T07:40:51;52668.03;;;-146.96;79.99
39105;BME280;46464;51.154;13.812;2023-03-16T07:43:17;52649.72;;;-146.96;79.43
39105;BME280;46464;51.154;13.812;2023-03-16T07:45:50;52676.19;;;-146.96;78.66
39105;BME280;46464;51.154;13.812;2023-03-16T07:48:18;52686.34;;;-146.96;77.83
39105;BME280;46464;51.154;13.812;2023-03-16T07:50:48;52680.25;;;-146.96;76.52
39105;BME280;46464;51.154;13.812;2023-03-16T07:53:15;52663.97;;;-146.96;76.55
39105;BME280;46464;51.154;13.812;2023-03-16T07:55:41;52670.06;;;-146.96;75.75
39105;BME280;46464;51.154;13.812;2023-03-16T07:58:09;52676.19;;;-146.96;71.56
39105;BME280;46464;51.154;13.812;2023-03-16T08:00:37;52623.28;;;-146.96;72.95
39105;BME280;46464;51.154;13.812;2023-03-16T08:03:04;52684.31;;;-146.96;71.86
39105;BME280;46464;51.154;13.812;2023-03-16T08:05:31;52672.13;;;-146.96;72.53
39105;BME280;46464;51.154;13.812;2023-03-16T08:07:57;52686.34;;;-146.96;72.16
39105;BME280;46464;51.154;13.812;2023-03-16T08:10:24;52651.75;;;-146.96;71.54
39105;BME280;46464;51.154;13.812;2023-03-16T08:12:51;52639.56;;;-146.96;71.33
39105;BME280;46464;51.154;13.812;2023-03-16T08:15:18;52639.56;;;-146.96;70.04
39105;BME280;46464;51.154;13.812;2023-03-16T08:17:44;52659.91;;;-146.96;68.37
39105;BME280;46464;51.154;13.812;2023-03-16T08:20:13;52621.25;;;-146.96;68.03
39105;BME280;46464;51.154;13.812;2023-03-16T08:22:41;52623.28;;;-146.96;67.18
39105;BME280;46464;51.154;13.812;2023-03-16T08:25:13;52643.63;;;-146.96;67.33
39105;BME280;46464;51.154;13.812;2023-03-16T08:27:40;52627.34;;;-146.96;68.47
39105;BME280;46464;51.154;13.812;2023-03-16T08:30:10;52580.53;;;-146.96;71.17
39105;BME280;46464;51.154;13.812;2023-03-16T08:32:37;52639.56;;;-146.96;67.52
39105;BME280;46464;51.154;13.812;2023-03-16T08:35:11;52633.44;;;-146.96;69.89
39105;BME280;46464;51.154;13.812;2023-03-16T08:37:40;52623.28;;;-146.96;68.61
39105;BME280;46464;51.154;13.812;2023-03-16T08:40:08;52598.84;;;-146.96;65.69
39105;BME280;46464;51.154;13.812;2023-03-16T08:42:44;52582.56;;;-146.96;67.11
39105;BME280;46464;51.154;13.812;2023-03-16T08:45:11;52592.75;;;-146.96;69.86
39105;BME280;46464;51.154;13.812;2023-03-16T08:47:40;52564.25;;;-146.96;72.81
39105;BME280;46464;51.154;13.812;2023-03-16T08:50:08;52570.38;;;-146.96;64.30
39105;BME280;46464;51.154;13.812;2023-03-16T08:52:35;52584.63;;;-146.96;67.80
39105;BME280;46464;51.154;13.812;2023-03-16T08:55:02;52550.03;;;-146.96;61.89
39105;BME280;46464;51.154;13.812;2023-03-16T08:57:32;52552.06;;;-146.96;64.60
39105;BME280;46464;51.154;13.812;2023-03-16T08:59:59;52562.22;;;-146.96;58.92
39105;BME280;46464;51.154;13.812;2023-03-16T09:02:26;52554.09;;;-146.96;58.20
39105;BME280;46464;51.154;13.812;2023-03-16T09:04:53;52554.09;;;-146.96;58.50
39105;BME280;46464;51.154;13.812;2023-03-16T09:07:20;52554.09;;;-146.96;61.55
39105;BME280;46464;51.154;13.812;2023-03-16T09:09:47;52607.00;;;-146.96;62.55
39105;BME280;46464;51.154;13.812;2023-03-16T09:12:13;52501.19;;;-146.96;61.48
39105;BME280;46464;51.154;13.812;2023-03-16T09:14:40;52499.16;;;-146.96;62.42
39105;BME280;46464;51.154;13.812;2023-03-16T09:17:06;52503.22;;;-146.96;51.88
39105;BME280;46464;51.154;13.812;2023-03-16T09:19:33;52513.41;;;-146.96;56.96
39105;BME280;46464;51.154;13.812;2023-03-16T09:22:16;52476.75;;;-146.96;58.23
39105;BME280;46464;51.154;13.812;2023-03-16T09:24:43;52468.63;;;-146.96;55.55
39105;BME280;46464;51.154;13.812;2023-03-16T09:27:09;52482.88;;;-146.96;57.31
39105;BME280;46464;51.154;13.812;2023-03-16T09:29:36;52440.13;;;-146.96;57.31
39105;BME280;46464;51.154;13.812;2023-03-16T09:32:02;52460.50;;;-146.96;55.27
39105;BME280;46464;51.154;13.812;2023-03-16T09:34:30;52464.56;;;-146.96;53.87
39105;BME280;46464;51.154;13.812;2023-03-16T09:36:59;52440.13;;;-146.96;54.36
39105;BME280;46464;51.154;13.812;2023-03-16T09:39:26;52448.28;;;-146.96;50.78
39105;BME280;46464;51.154;13.812;2023-03-16T09:42:13;52448.28;;;-146.96;50.38
39105;BME280;46464;51.154;13.812;2023-03-16T09:47:34;52421.81;;;-146.96;48.69
39105;BME280;46464;51.154;13.812;2023-03-16T09:50:07;52448.28;;;-146.96;43.29
39105;BME280;46464;51.154;13.812;2023-03-16T09:53:05;52468.63;;;-146.96;46.81
39105;BME280;46464;51.154;13.812;2023-03-16T09:55:33;52399.44;;;-146.96;49.56
39105;BME280;46464;51.154;13.812;2023-03-16T09:58:04;52474.72;;;-146.96;49.35
39105;BME280;46464;51.154;13.812;2023-03-16T10:00:40;52425.91;;;-146.96;43.82
39105;BME280;46464;51.154;13.812;2023-03-16T10:03:28;52423.88;;;-146.96;44.84
39105;BME280;46464;51.154;13.812;2023-03-16T10:06:03;52417.75;;;-146.96;46.02
39105;BME280;46464;51.154;13.812;2023-03-16T10:13:54;52399.44;;;-146.96;48.95
39105;BME280;46464;51.154;13.812;2023-03-16T10:16:28;52411.66;;;-146.96;47.27
39105;BME280;46464;51.154;13.812;2023-03-16T10:19:02;52381.13;;;-146.96;43.77
39105;BME280;46464;51.154;13.812;2023-03-16T10:21:38;52393.34;;;-146.96;47.80
39105;BME280;46464;51.154;13.812;2023-03-16T10:24:15;52395.38;;;-146.96;50.43
39105;BME280;46464;51.154;13.812;2023-03-16T10:26:47;52383.16;;;-146.96;50.45
39105;BME280;46464;51.154;13.812;2023-03-16T10:29:16;52344.50;;;-146.96;51.21
39105;BME280;46464;51.154;13.812;2023-03-16T10:31:43;52379.09;;;-146.96;46.70
39105;BME280;46464;51.154;13.812;2023-03-16T10:34:09;52405.56;;;-146.96;48.53
39105;BME280;46464;51.154;13.812;2023-03-16T10:36:43;52364.84;;;-146.96;43.71
39105;BME280;46464;51.154;13.812;2023-03-16T10:39:12;52397.41;;;-146.96;47.17
39105;BME280;46464;51.154;13.812;2023-03-16T10:41:42;52348.56;;;-146.96;47.64
39105;BME280;46464;51.154;13.812;2023-03-16T10:47:03;52393.34;;;-146.96;45.16
39105;BME280;46464;51.154;13.812;2023-03-16T10:49:41;52373.00;;;-146.96;46.33
39105;BME280;46464;51.154;13.812;2023-03-16T10:57:41;52342.47;;;-146.96;44.63
39105;BME280;46464;51.154;13.812;2023-03-16T11:00:12;52322.13;;;-146.96;43.50
39105;BME280;46464;51.154;13.812;2023-03-16T11:02:48;52358.75;;;-146.96;43.36
39105;BME280;46464;51.154;13.812;2023-03-16T11:07:49;52305.84;;;-146.96;39.16
39105;BME280;46464;51.154;13.812;2023-03-16T11:12:53;52320.09;;;-146.96;44.29
39105;BME280;46464;51.154;13.812;2023-03-16T11:15:25;52336.38;;;-146.96;42.48
39105;BME280;46464;51.154;13.812;2023-03-16T11:17:53;52344.50;;;-146.96;41.85
39105;BME280;46464;51.154;13.812;2023-03-16T11:20:27;52322.13;;;-146.96;42.80
39105;BME280;46464;51.154;13.812;2023-03-16T11:22:56;52316.03;;;-146.96;41.86
39105;BME280;46464;51.154;13.812;2023-03-16T11:25:28;52303.81;;;-146.96;41.83
39105;BME280;46464;51.154;13.812;2023-03-16T11:30:39;52318.06;;;-146.96;41.99
39105;BME280;46464;51.154;13.812;2023-03-16T11:33:12;52332.28;;;-146.96;39.44
39105;BME280;46464;51.154;13.812;2023-03-16T11:38:56;52318.06;;;-146.96;43.01
39105;BME280;46464;51.154;13.812;2023-03-16T11:46:38;52281.44;;;-146.96;41.60
39105;BME280;46464;51.154;13.812;2023-03-16T11:54:55;52273.28;;;-146.96;41.38
39105;BME280;46464;51.154;13.812;2023-03-16T11:57:42;52275.31;;;-146.96;36.66
39105;BME280;46464;51.154;13.812;2023-03-16T12:06:31;52267.19;;;-146.96;39.37
39105;BME280;46464;51.154;13.812;2023-03-16T12:11:46;52293.63;;;-146.96;40.39
39105;BME280;46464;51.154;13.812;2023-03-16T12:14:37;52259.03;;;-146.96;39.79
39105;BME280;46464;51.154;13.812;2023-03-16T12:17:12;52216.31;;;-146.96;38.58
39105;BME280;46464;51.154;13.812;2023-03-16T12:22:18;52238.69;;;-146.96;37.49
39105;BME280;46464;51.154;13.812;2023-03-16T12:24:47;52277.34;;;-146.96;38.09
39105;BME280;46464;51.154;13.812;2023-03-16T12:27:18;52297.72;;;-146.96;34.76
39105;BME280;46464;51.154;13.812;2023-03-16T12:29:57;52254.97;;;-146.96;37.16
39105;BME280;46464;51.154;13.812;2023-03-16T12:32:34;52291.59;;;-146.96;38.05
39105;BME280;46464;51.154;13.812;2023-03-16T12:35:27;52271.25;;;-146.96;37.10
39105;BME280;46464;51.154;13.812;2023-03-16T12:41:32;52289.56;;;-146.96;38.05
39105;BME280;46464;51.154;13.812;2023-03-16T12:47:01;52250.91;;;-146.96;37.69
39105;BME280;46464;51.154;13.812;2023-03-16T12:49:33;52273.28;;;-146.96;37.88
39105;BME280;46464;51.154;13.812;2023-03-16T12:52:07;52273.28;;;-146.96;36.80
39105;BME280;46464;51.154;13.812;2023-03-16T12:54:50;52242.78;;;-146.96;37.75
39105;BME280;46464;51.154;13.812;2023-03-16T12:57:23;52248.88;;;-146.96;35.09
39105;BME280;46464;51.154;13.812;2023-03-16T12:59:56;52263.13;;;-146.96;37.11
39105;BME280;46464;51.154;13.812;2023-03-16T13:02:31;52210.22;;;-146.96;37.81
39105;BME280;46464;51.154;13.812;2023-03-16T13:05:48;52240.75;;;-146.96;34.97
39105;BME280;46464;51.154;13.812;2023-03-16T13:07:50;52261.09;;;-146.96;35.17
39105;BME280;46464;51.154;13.812;2023-03-16T13:10:18;52273.28;;;-146.96;33.44
39105;BME280;46464;51.154;13.812;2023-03-16T13:12:46;52250.91;;;-146.96;35.54
39105;BME280;46464;51.154;13.812;2023-03-16T13:17:43;52252.94;;;-146.96;35.33
39105;BME280;46464;51.154;13.812;2023-03-16T13:28:39;52263.13;;;-146.96;36.27
39105;BME280;46464;51.154;13.812;2023-03-16T13:31:27;52238.69;;;-146.96;35.78
39105;BME280;46464;51.154;13.812;2023-03-16T13:33:59;52263.13;;;-146.96;35.74
39105;BME280;46464;51.154;13.812;2023-03-16T13:36:27;52236.66;;;-146.96;36.12
39105;BME280;46464;51.154;13.812;2023-03-16T13:38:55;52242.78;;;-146.96;34.80
39105;BME280;46464;51.154;13.812;2023-03-16T13:41:23;52252.94;;;-146.96;36.83
39105;BME280;46464;51.154;13.812;2023-03-16T13:43:50;52254.97;;;-146.96;35.08
39105;BME280;46464;51.154;13.812;2023-03-16T13:46:19;52240.75;;;-146.96;36.95
39105;BME280;46464;51.154;13.812;2023-03-16T13:48:47;52267.19;;;-146.96;38.45
39105;BME280;46464;51.154;13.812;2023-03-16T13:51:19;52248.88;;;-146.96;36.39
39105;BME280;46464;51.154;13.812;2023-03-16T13:53:49;52269.22;;;-146.96;36.88
39105;BME280;46464;51.154;13.812;2023-03-16T13:56:21;52259.03;;;-146.96;37.99